Terminal Aerodrome Forecast
Issued by NWS Upton, NY

Home | Current Version | Previous Version | Text Only | Print | Product List | Glossary On
Versions: 1 2 3 4 5 6 7 8 9 10 11 12 13 14 15 16 17 18 19 20 21 22 23 24 25 26 27 28 29 30
088
FTUS41 KOKX 132003 AAA
TAFBDR
TAF AMD
KBDR 132003Z 1320/1418 29018G31KT P6SM FEW050
     FM132300 27015G25KT P6SM FEW045 FEW150
     FM140200 25010G17KT P6SM BKN050
     FM140500 24008KT 4SM -SN OVC035
     FM140700 VRB04KT 2SM -SN SCT015 OVC025
     FM141100 34007KT 2SM -SN BKN015
     FM141300 33008KT 4SM -SN BKN025
     FM141500 32009KT P6SM SCT035=

USA.gov is the U.S. government's official web portal to all federal, state and local government web resources and services.